Estació meteorològica de Bellmunt (Osona, Osona)

Consulta les dades en temps real de l'estació meteorològica de Bellmunt





Hora UTC 18:05
Temperatura 27.6 ºC
Humitat 49.0 %
Pressió 1015.9 hPa
Pluja 0.0 mm
Velocitat vent 11.3 km/h
Direcció vent S

Dades diàries 2026-09-02



Hora UTC (hivern +1h; estiu +2h)
Temperatura (ºC) Humitat (%) Pressió (hPa) Velocitat vent (km/h) Precipitació (mm)
Hora UTC Aire Humitat Pressió Vel. Dir. Vel. Max Dir. Intent. màx 5 min.
00:05 18.4 69.0 1015.4 0.0 WSW 0.0 0.0
00:10 18.5 70.0 1015.5 0.0 WSW 0.0 0.0
00:15 18.7 69.0 1015.5 0.0 WSW 0.0 0.0
00:20 18.8 69.0 1015.5 0.0 WSW 0.0 0.0
00:25 18.9 68.0 1015.4 0.0 WSW 0.0 0.0
00:30 18.9 68.0 1015.4 6.4 ENE 8.0 0.0
00:35 19.2 67.0 1015.5 4.8 ENE 8.0 0.0
00:40 19.3 66.0 1015.6 1.6 ENE 8.0 0.0
00:45 19.4 66.0 1015.6 1.6 ENE 6.4 0.0
00:50 19.2 66.0 1015.5 0.0 ENE 4.8 0.0
00:55 18.9 66.0 1015.5 0.0 ENE 0.0 0.0
01:00 18.6 66.0 1015.4 1.6 N 1.6 0.0
01:05 18.3 67.0 1015.3 0.0 N 1.6 0.0
01:10 18.3 68.0 1015.3 0.0 NNE 1.6 0.0
01:15 18.3 68.0 1015.3 0.0 NNE 0.0 0.0
01:20 18.2 68.0 1015.4 0.0 NNE 0.0 0.0
01:25 18.1 68.0 1015.4 0.0 NNE 0.0 0.0
01:30 17.9 69.0 1015.3 0.0 NNE 0.0 0.0
01:35 17.7 69.0 1015.4 0.0 NNE 0.0 0.0
01:40 17.6 70.0 1015.3 0.0 NNE 0.0 0.0
01:45 17.4 70.0 1015.3 0.0 NNE 0.0 0.0
01:50 17.3 70.0 1015.3 0.0 NNE 0.0 0.0
01:55 17.2 71.0 1015.2 0.0 NNE 0.0 0.0
02:00 17.3 71.0 1015.2 0.0 NNE 0.0 0.0
02:05 17.2 72.0 1015.3 0.0 N 0.0 0.0
02:10 17.3 72.0 1015.3 0.0 N 0.0 0.0
02:15 17.3 72.0 1015.2 0.0 N 0.0 0.0
02:20 17.4 72.0 1015.2 0.0 NE 0.0 0.0
02:25 17.5 72.0 1015.3 0.0 NE 0.0 0.0
02:30 17.5 71.0 1015.3 0.0 NE 0.0 0.0
02:35 17.4 71.0 1015.3 0.0 NNE 0.0 0.0
02:40 17.4 71.0 1015.3 4.8 NNE 4.8 0.0
02:45 17.4 71.0 1015.3 4.8 NNE 6.4 0.0
02:50 17.4 71.0 1015.3 4.8 NNE 6.4 0.0
02:55 17.4 71.0 1015.1 0.0 ENE 6.4 0.0
03:00 17.4 71.0 1015.2 0.0 SSE 4.8 0.0
03:05 17.3 71.0 1015.2 0.0 SSE 3.2 0.0
03:10 17.3 71.0 1015.2 0.0 SE 0.0 0.0
03:15 17.1 71.0 1015.2 0.0 SE 0.0 0.0
03:20 17.0 71.0 1015.3 0.0 SW 0.0 0.0
03:25 16.8 72.0 1015.3 0.0 SW 0.0 0.0
03:30 16.7 72.0 1015.4 0.0 SW 0.0 0.0
03:35 16.5 72.0 1015.3 0.0 S 0.0 0.0
03:40 16.7 73.0 1015.3 0.0 SSE 0.0 0.0
03:45 16.8 73.0 1015.3 0.0 E 0.0 0.0
03:50 16.7 73.0 1015.3 0.0 ENE 0.0 0.0
03:55 16.7 73.0 1015.2 1.6 ENE 4.8 0.0
04:00 16.7 73.0 1015.3 0.0 ESE 4.8 0.0
04:05 16.4 73.0 1015.3 0.0 ESE 1.6 0.0
04:10 16.4 73.0 1015.3 0.0 NNW 0.0 0.0
04:15 16.4 73.0 1015.3 0.0 NNW 0.0 0.0
04:20 16.4 73.0 1015.2 0.0 NW 0.0 0.0
04:25 16.6 74.0 1015.3 0.0 NW 0.0 0.0
04:30 16.6 74.0 1015.3 0.0 NW 0.0 0.0
04:35 16.3 74.0 1015.2 0.0 W 0.0 0.0
04:40 16.1 74.0 1015.2 0.0 W 0.0 0.0
04:45 15.9 74.0 1015.3 0.0 W 0.0 0.0
04:50 15.8 74.0 1015.3 0.0 W 0.0 0.0
04:55 15.9 74.0 1015.3 0.0 NE 0.0 0.0
05:00 16.1 74.0 1015.3 0.0 ENE 0.0 0.0
05:05 16.3 74.0 1015.3 0.0 ENE 0.0 0.0
05:10 16.3 74.0 1015.4 0.0 ENE 0.0 0.0
05:15 16.2 74.0 1015.4 0.0 ENE 0.0 0.0
05:20 16.2 74.0 1015.4 0.0 ENE 0.0 0.0
05:25 16.2 74.0 1015.5 4.8 NNE 4.8 0.0
05:30 16.3 74.0 1015.5 3.2 NE 6.4 0.0
05:35 16.4 74.0 1015.5 0.0 NE 6.4 0.0
05:40 16.4 74.0 1015.5 0.0 ESE 3.2 0.0
05:45 16.2 74.0 1015.5 0.0 ESE 3.2 0.0
05:50 16.3 74.0 1015.6 0.0 SSW 1.6 0.0
05:55 16.4 74.0 1015.7 0.0 SSW 1.6 0.0
06:00 16.5 74.0 1015.7 0.0 SW 0.0 0.0
06:05 16.7 74.0 1015.8 0.0 SW 0.0 0.0
06:10 16.9 74.0 1015.8 0.0 SW 0.0 0.0
06:15 17.2 73.0 1015.8 0.0 SSE 0.0 0.0
06:20 17.6 73.0 1015.9 0.0 SSE 0.0 0.0
06:25 17.9 72.0 1016.0 0.0 SSE 0.0 0.0
06:30 18.2 71.0 1016.1 0.0 WSW 0.0 0.0
06:35 18.2 71.0 1016.1 0.0 WSW 0.0 0.0
06:40 18.3 71.0 1016.2 0.0 WSW 0.0 0.0
06:45 18.6 71.0 1016.2 0.0 WSW 0.0 0.0
06:50 19.2 70.0 1016.2 0.0 WSW 0.0 0.0
06:55 19.7 67.0 1016.1 0.0 WSW 0.0 0.0
07:00 20.2 66.0 1016.2 0.0 WSW 0.0 0.0
07:05 20.7 64.0 1016.3 0.0 WSW 0.0 0.0
07:10 21.0 64.0 1016.2 0.0 WSW 0.0 0.0
07:15 20.9 64.0 1016.3 0.0 WSW 0.0 0.0
07:20 20.8 65.0 1016.2 4.8 WSW 4.8 0.0
07:25 20.8 65.0 1016.2 1.6 WSW 6.4 0.0
07:30 20.8 64.0 1016.2 0.0 WSW 6.4 0.0
07:35 21.0 64.0 1016.3 0.0 WSW 4.8 0.0
07:40 21.4 65.0 1016.2 0.0 WSW 0.0 0.0
07:45 21.6 64.0 1016.3 0.0 WSW 0.0 0.0
07:50 21.8 63.0 1016.3 3.2 WSW 4.8 0.0
07:55 21.9 63.0 1016.4 1.6 WSW 6.4 0.0
08:00 21.9 63.0 1016.5 4.8 WSW 6.4 0.0
08:05 22.1 63.0 1016.5 0.0 WSW 6.4 0.0
08:10 22.6 62.0 1016.6 0.0 WSW 3.2 0.0
08:15 23.1 61.0 1016.7 1.6 WSW 4.8 0.0
08:20 22.9 61.0 1016.7 1.6 WSW 4.8 0.0
08:25 23.3 61.0 1016.7 3.2 WSW 4.8 0.0
08:30 23.6 60.0 1016.8 0.0 WSW 6.4 0.0
08:35 24.1 59.0 1016.8 0.0 WSW 4.8 0.0
08:40 24.5 58.0 1016.8 0.0 WSW 4.8 0.0
08:45 24.5 59.0 1016.7 1.6 WSW 3.2 0.0
08:50 24.8 58.0 1016.7 0.0 WSW 4.8 0.0
08:55 25.0 58.0 1016.8 0.0 WSW 6.4 0.0
09:00 25.3 57.0 1016.9 1.6 WSW 6.4 0.0
09:05 25.4 58.0 1016.9 0.0 WSW 6.4 0.0
09:10 25.7 55.0 1016.9 0.0 WSW 6.4 0.0
09:15 26.4 55.0 1017.1 1.6 WSW 4.8 0.0
09:20 26.8 53.0 1017.1 3.2 WSW 4.8 0.0
09:25 26.9 51.0 1017.1 1.6 S 6.4 0.0
09:30 27.2 49.0 1017.2 4.8 W 6.4 0.0
09:35 27.6 45.0 1017.1 4.8 W 6.4 0.0
09:40 27.7 44.0 1017.1 3.2 W 9.7 0.0
09:45 28.0 43.0 1017.2 9.7 W 11.3 0.0
09:50 28.1 41.0 1017.1 4.8 W 11.3 0.0
09:55 28.2 40.0 1017.2 1.6 W 9.7 0.0
10:00 28.4 42.0 1017.2 6.4 W 9.7 0.0
10:05 28.7 41.0 1017.2 3.2 W 6.4 0.0
10:10 29.0 44.0 1017.1 6.4 W 6.4 0.0
10:15 29.3 40.0 1017.1 9.7 W 11.3 0.0
10:20 29.0 41.0 1017.1 0.0 W 11.3 0.0
10:25 29.3 42.0 1017.2 9.7 W 11.3 0.0
10:30 29.4 41.0 1017.1 4.8 W 11.3 0.0
10:35 29.7 41.0 1017.1 4.8 W 11.3 0.0
10:40 29.9 42.0 1017.1 1.6 W 11.3 0.0
10:45 30.0 39.0 1017.1 9.7 SSE 12.9 0.0
10:50 29.9 39.0 1017.0 1.6 NE 12.9 0.0
10:55 30.3 41.0 1017.0 9.7 W 11.3 0.0
11:00 29.9 41.0 1017.0 3.2 W 11.3 0.0
11:05 30.3 39.0 1017.0 6.4 SSW 14.5 0.0
11:10 30.4 40.0 1017.0 4.8 W 14.5 0.0
11:15 30.4 39.0 1016.9 4.8 W 9.7 0.0
11:20 30.8 38.0 1016.8 1.6 W 9.7 0.0
11:25 30.6 39.0 1016.8 6.4 SSE 14.5 0.0
11:30 30.9 39.0 1016.8 11.3 S 14.5 0.0
11:35 30.9 39.0 1016.8 6.4 E 11.3 0.0
11:40 31.2 40.0 1016.8 0.0 N 8.0 0.0
11:45 31.5 40.0 1016.8 9.7 SSE 12.9 0.0
11:50 31.5 40.0 1016.8 16.1 SW 16.1 0.0
11:55 31.3 37.0 1016.8 3.2 SE 16.1 0.0
12:00 31.5 38.0 1016.7 0.0 ESE 14.5 0.0
12:05 31.8 39.0 1016.7 0.0 SW 3.2 0.0
12:10 31.8 37.0 1016.7 4.8 SSW 11.3 0.0
12:15 31.9 37.0 1016.7 4.8 SSE 14.5 0.0
12:20 32.1 39.0 1016.6 6.4 WNW 14.5 0.0
12:25 31.6 39.0 1016.6 4.8 W 12.9 0.0
12:30 31.9 39.0 1016.4 4.8 W 12.9 0.0
12:35 32.3 36.0 1016.5 8.0 SSE 11.3 0.0
12:40 32.3 36.0 1016.4 4.8 SSE 12.9 0.0
12:45 32.6 37.0 1016.4 4.8 SSE 12.9 0.0
12:50 33.2 37.0 1016.5 9.7 SSE 9.7 0.0
12:55 33.0 37.0 1016.3 1.6 WSW 12.9 0.0
13:00 33.1 37.0 1016.3 4.8 NE 12.9 0.0
13:05 33.1 39.0 1016.3 6.4 NNE 9.7 0.0
13:10 33.5 38.0 1016.2 3.2 W 8.0 0.0
13:15 33.4 36.0 1016.3 11.3 S 14.5 0.0
13:20 33.3 35.0 1016.2 11.3 SE 12.9 0.0
13:25 33.4 36.0 1016.1 8.0 SE 22.5 0.0
13:30 33.3 36.0 1016.1 4.8 SSW 27.4 0.0
13:35 33.2 34.0 1015.8 4.8 S 27.4 0.0
13:40 33.2 35.0 1015.9 8.0 S 24.1 0.0
13:45 33.4 37.0 1015.8 4.8 S 29.0 0.0
13:50 33.3 35.0 1015.8 12.9 S 29.0 0.0
13:55 33.1 37.0 1015.9 1.6 W 22.5 0.0
14:00 32.8 37.0 1015.9 11.3 S 19.3 0.0
14:05 32.7 37.0 1015.9 20.9 SW 20.9 0.0
14:10 32.6 37.0 1015.9 11.3 S 25.7 0.0
14:15 32.6 37.0 1015.7 9.7 SSE 24.1 0.0
14:20 32.7 37.0 1015.8 8.0 SE 24.1 0.0
14:25 32.2 38.0 1015.7 16.1 S 25.7 0.0
14:30 32.1 38.0 1015.6 11.3 SSE 27.4 0.0
14:35 32.1 38.0 1015.6 24.1 S 24.1 0.0
14:40 32.1 38.0 1015.5 16.1 S 24.1 0.0
14:45 32.2 38.0 1015.5 12.9 S 22.5 0.0
14:50 32.1 38.0 1015.5 9.7 SSE 22.5 0.0
14:55 32.2 38.0 1015.4 12.9 S 22.5 0.0
15:00 32.1 37.0 1015.4 17.7 S 20.9 0.0
15:05 31.9 38.0 1015.3 19.3 S 20.9 0.0
15:10 31.8 38.0 1015.3 14.5 S 25.7 0.0
15:15 31.7 39.0 1015.4 9.7 S 25.7 0.0
15:20 32.1 38.0 1015.3 12.9 S 19.3 0.0
15:25 31.9 39.0 1015.3 11.3 SSW 17.7 0.0
15:30 31.6 39.0 1015.4 14.5 S 19.3 0.0
15:35 31.3 40.0 1015.4 3.2 S 24.1 0.0
15:40 31.3 39.0 1015.4 14.5 SSE 19.3 0.0
15:45 31.1 39.0 1015.4 19.3 S 22.5 0.0
15:50 30.9 40.0 1015.4 16.1 S 24.1 0.0
15:55 31.0 40.0 1015.4 11.3 S 24.1 0.0
16:00 31.2 40.0 1015.4 6.4 SSW 16.1 0.0
16:05 31.2 39.0 1015.3 6.4 SSW 22.5 0.0
16:10 30.9 40.0 1015.4 17.7 SSW 20.9 0.0
16:15 30.8 41.0 1015.2 11.3 SSE 25.7 0.0
16:20 30.8 40.0 1015.4 9.7 SW 19.3 0.0
16:25 30.6 40.0 1015.4 8.0 SSW 19.3 0.0
16:30 30.7 41.0 1015.5 1.6 SSE 17.7 0.0
16:35 30.8 41.0 1015.3 3.2 W 17.7 0.0
16:40 30.8 41.0 1015.4 3.2 W 12.9 0.0
16:45 30.4 43.0 1015.4 8.0 ESE 24.1 0.0
16:50 30.1 44.0 1015.5 14.5 SE 24.1 0.0
16:55 29.8 45.0 1015.5 12.9 ESE 20.9 0.0
17:00 29.7 45.0 1015.5 16.1 SE 20.9 0.0
17:05 29.6 45.0 1015.5 6.4 SSE 17.7 0.0
17:10 29.6 45.0 1015.6 4.8 ESE 17.7 0.0
17:15 29.6 46.0 1015.6 8.0 SSE 14.5 0.0
17:20 29.5 46.0 1015.7 11.3 SE 14.5 0.0
17:25 29.2 46.0 1015.7 8.0 SSE 14.5 0.0
17:30 28.9 46.0 1015.8 6.4 ESE 17.7 0.0
17:35 28.8 46.0 1015.8 11.3 SSE 17.7 0.0
17:40 28.5 47.0 1015.8 14.5 SSE 14.5 0.0
17:45 28.3 47.0 1015.8 6.4 SSW 16.1 0.0
17:50 28.2 47.0 1015.8 4.8 SSW 16.1 0.0
17:55 27.9 48.0 1015.8 6.4 SSW 11.3 0.0
18:00 27.7 49.0 1015.8 6.4 S 11.3 0.0
18:05 27.6 49.0 1015.9 11.3 S 16.1 0.0
Màxima 33.5 74.0 1017.2 24.1 S 29.0 0.0
Mínima 15.8 34.0 1015.1
Total 0.0